createdAt,value
2018-09-11T00:01:07.120Z,15.10
2018-09-11T00:03:34.681Z,15.10
2018-09-11T00:06:02.241Z,15.10
2018-09-11T00:08:29.805Z,15.10
2018-09-11T00:10:57.378Z,15.20
2018-09-11T00:13:24.946Z,15.20
2018-09-11T00:15:52.519Z,15.30
2018-09-11T00:18:20.081Z,15.30
2018-09-11T00:20:47.644Z,15.40
2018-09-11T00:23:15.201Z,15.40
2018-09-11T00:25:42.804Z,15.40
2018-09-11T00:28:11.142Z,15.40
2018-09-11T00:30:38.703Z,15.40
2018-09-11T00:33:08.201Z,15.40
2018-09-11T00:35:35.761Z,15.30
2018-09-11T00:38:05.256Z,15.30
2018-09-11T00:40:32.813Z,15.30
2018-09-11T00:43:00.379Z,15.20
2018-09-11T00:45:27.992Z,15.10
2018-09-11T00:47:55.553Z,15.10
2018-09-11T00:50:25.053Z,15.00
2018-09-11T00:52:52.613Z,15.00
2018-09-11T00:55:20.178Z,14.90
2018-09-11T00:57:49.686Z,14.90
2018-09-11T01:00:19.184Z,14.80
2018-09-11T01:02:46.746Z,14.80
2018-09-11T01:05:14.418Z,14.70
2018-09-11T01:07:41.987Z,14.70
2018-09-11T01:10:10.586Z,14.70
2018-09-11T01:12:38.214Z,14.60
2018-09-11T01:15:05.789Z,14.60
2018-09-11T01:17:33.350Z,14.70
2018-09-11T01:20:00.910Z,14.60
2018-09-11T01:22:28.473Z,14.50
2018-09-11T01:24:56.207Z,14.50
2018-09-11T01:27:23.769Z,14.50
2018-09-11T01:29:53.283Z,14.50
2018-09-11T01:32:20.846Z,14.50
2018-09-11T01:34:48.407Z,14.50
2018-09-11T01:37:15.975Z,14.60
2018-09-11T01:39:43.557Z,14.60
2018-09-11T01:42:11.128Z,14.60
2018-09-11T01:44:39.472Z,14.60
2018-09-11T01:47:07.043Z,14.60
2018-09-11T01:49:34.598Z,14.60
2018-09-11T01:52:02.157Z,14.60
2018-09-11T01:54:30.482Z,14.70
2018-09-11T01:56:58.049Z,14.70
2018-09-11T01:59:25.608Z,14.70
2018-09-11T02:01:53.194Z,14.80
2018-09-11T02:04:20.768Z,14.80
2018-09-11T02:06:48.334Z,14.70
2018-09-11T02:09:15.913Z,14.70
2018-09-11T02:11:43.474Z,14.70
2018-09-11T02:14:11.028Z,14.70
2018-09-11T02:16:38.605Z,14.60
2018-09-11T02:19:06.175Z,14.60
2018-09-11T02:21:33.749Z,14.50
2018-09-11T02:24:01.318Z,14.30
2018-09-11T02:26:28.901Z,14.30
2018-09-11T02:28:56.467Z,14.30
2018-09-11T02:31:24.040Z,14.20
2018-09-11T02:33:51.608Z,14.20
2018-09-11T02:36:19.181Z,14.20
2018-09-11T02:38:46.746Z,14.00
2018-09-11T02:41:14.309Z,14.10
2018-09-11T02:43:41.877Z,14.10
2018-09-11T02:46:09.447Z,14.10
2018-09-11T02:48:37.996Z,14.10
2018-09-11T02:51:05.558Z,14.00
2018-09-11T02:53:35.054Z,14.00
2018-09-11T02:56:02.622Z,14.00
2018-09-11T02:58:30.176Z,14.10
2018-09-11T03:00:57.743Z,14.20
2018-09-11T03:03:25.312Z,14.20
2018-09-11T03:05:52.914Z,14.30
2018-09-11T03:08:20.472Z,14.20
2018-09-11T03:10:48.037Z,14.20
2018-09-11T03:13:15.621Z,14.20
2018-09-11T03:15:43.190Z,14.20
2018-09-11T03:18:12.689Z,14.10
2018-09-11T03:20:42.181Z,14.10
2018-09-11T03:23:09.733Z,14.10
2018-09-11T03:25:37.298Z,14.00
2018-09-11T03:28:04.870Z,14.00
2018-09-11T03:30:32.425Z,13.90
2018-09-11T03:33:00.000Z,13.80
2018-09-11T03:35:27.566Z,13.70
2018-09-11T03:37:55.885Z,13.50
2018-09-11T03:40:23.446Z,13.50
2018-09-11T03:42:51.976Z,13.50
2018-09-11T03:45:19.558Z,13.50
2018-09-11T03:47:47.149Z,13.50
2018-09-11T03:50:14.718Z,13.50
2018-09-11T03:52:42.278Z,13.50
2018-09-11T03:55:10.611Z,13.50
2018-09-11T03:57:38.169Z,13.40
2018-09-11T04:00:05.730Z,13.40
2018-09-11T04:02:33.301Z,13.40
2018-09-11T04:05:00.870Z,13.30
2018-09-11T04:07:28.432Z,13.30
2018-09-11T04:09:55.996Z,13.30
2018-09-11T04:12:23.583Z,13.30
2018-09-11T04:14:51.162Z,13.30
2018-09-11T04:17:18.734Z,13.30
2018-09-11T04:19:46.315Z,13.30
2018-09-11T04:22:13.872Z,13.30
2018-09-11T04:24:41.454Z,13.30
2018-09-11T04:27:09.018Z,13.30
2018-09-11T04:29:37.349Z,13.20
2018-09-11T04:32:06.842Z,13.20
2018-09-11T04:34:34.400Z,13.20
2018-09-11T04:37:01.969Z,13.20
2018-09-11T04:39:29.537Z,13.20
2018-09-11T04:41:57.109Z,13.10
2018-09-11T04:44:24.669Z,13.10
2018-09-11T04:46:52.233Z,13.10
2018-09-11T04:49:19.798Z,13.10
2018-09-11T04:51:50.111Z,13.00
2018-09-11T04:54:17.682Z,13.00
2018-09-11T04:56:45.250Z,13.00
2018-09-11T04:59:13.590Z,12.90
2018-09-11T05:01:43.116Z,12.90
2018-09-11T05:04:10.669Z,12.90
2018-09-11T05:06:38.237Z,12.90
2018-09-11T05:09:05.810Z,12.90
2018-09-11T05:11:34.358Z,12.90
2018-09-11T05:14:01.926Z,12.80
2018-09-11T05:16:29.521Z,12.80
2018-09-11T05:18:57.162Z,12.80
2018-09-11T05:21:24.677Z,12.80
2018-09-11T05:23:52.242Z,12.90
2018-09-11T05:26:19.809Z,12.90
2018-09-11T05:28:47.370Z,13.00
2018-09-11T05:31:14.944Z,12.90
2018-09-11T05:33:42.534Z,12.90
2018-09-11T05:36:10.100Z,12.90
2018-09-11T05:38:39.605Z,13.00
2018-09-11T05:41:07.163Z,13.00
2018-09-11T05:43:36.674Z,13.10
2018-09-11T05:46:05.189Z,13.20
2018-09-11T05:48:33.685Z,13.30
2018-09-11T05:51:01.244Z,13.40
2018-09-11T05:53:30.765Z,13.50
2018-09-11T05:55:58.336Z,13.50
2018-09-11T05:58:25.931Z,13.60
2018-09-11T06:00:54.442Z,13.70
2018-09-11T06:03:22.010Z,13.80
2018-09-11T06:05:49.692Z,14.00
2018-09-11T06:08:17.161Z,14.00
2018-09-11T06:10:44.737Z,14.20
2018-09-11T06:13:12.289Z,14.30
2018-09-11T06:15:39.858Z,14.40
2018-09-11T06:18:08.338Z,14.50
2018-09-11T06:20:35.899Z,14.70
2018-09-11T06:23:03.476Z,14.80
2018-09-11T06:25:31.034Z,14.90
2018-09-11T06:27:58.598Z,15.00
2018-09-11T06:30:26.178Z,15.20
2018-09-11T06:32:53.762Z,15.30
2018-09-11T06:35:21.365Z,15.40
2018-09-11T06:37:48.911Z,15.50
2018-09-11T06:40:16.479Z,15.70
2018-09-11T06:42:44.817Z,16.00
2018-09-11T06:45:13.323Z,15.90
2018-09-11T06:47:40.889Z,16.10
2018-09-11T06:50:09.067Z,16.20
2018-09-11T06:52:39.337Z,16.50
2018-09-11T06:55:06.908Z,16.50
2018-09-11T06:57:34.470Z,16.60
2018-09-11T07:00:03.986Z,16.80
2018-09-11T07:02:33.492Z,16.90
2018-09-11T07:05:01.054Z,17.10
2018-09-11T07:07:28.633Z,17.20
2018-09-11T07:09:56.202Z,17.40
2018-09-11T07:12:23.770Z,17.60
2018-09-11T07:14:51.459Z,17.80
2018-09-11T07:17:18.934Z,17.90
2018-09-11T07:19:46.596Z,18.10
2018-09-11T07:22:14.108Z,18.20
2018-09-11T07:24:41.672Z,18.40
2018-09-11T07:27:09.229Z,18.60
2018-09-11T07:29:36.803Z,18.70
2018-09-11T07:32:04.377Z,18.90
2018-09-11T07:34:31.933Z,19.00
2018-09-11T07:36:59.505Z,19.20
2018-09-11T07:39:27.849Z,19.50
2018-09-11T07:41:56.366Z,19.50
2018-09-11T07:44:24.698Z,19.80
2018-09-11T07:46:52.262Z,19.80
2018-09-11T07:49:19.824Z,19.90
2018-09-11T07:51:47.380Z,20.10
2018-09-11T07:54:14.941Z,20.20
2018-09-11T07:56:42.508Z,20.20
2018-09-11T07:59:10.081Z,20.40
2018-09-11T08:01:38.427Z,20.60
2018-09-11T08:04:05.998Z,20.60
2018-09-11T08:06:33.565Z,20.70
2018-09-11T08:09:01.131Z,20.90
2018-09-11T08:11:29.465Z,21.00
2018-09-11T08:13:57.026Z,21.00
2018-09-11T08:16:24.646Z,21.10
2018-09-11T08:18:52.217Z,21.10
2018-09-11T08:21:20.742Z,21.20
2018-09-11T08:23:48.306Z,21.40
2018-09-11T08:26:16.642Z,21.50
2018-09-11T08:28:44.200Z,21.50
2018-09-11T08:31:11.767Z,21.60
2018-09-11T08:33:39.325Z,21.70
2018-09-11T08:36:06.895Z,21.80
2018-09-11T08:38:35.497Z,21.90
2018-09-11T08:41:03.855Z,22.10
2018-09-11T08:43:31.405Z,22.00
2018-09-11T08:45:58.974Z,22.10
2018-09-11T08:48:26.542Z,22.20
2018-09-11T08:50:54.869Z,22.50
2018-09-11T08:53:22.433Z,22.50
2018-09-11T08:55:49.997Z,22.60
2018-09-11T08:58:19.519Z,22.70
2018-09-11T09:00:47.993Z,22.70
2018-09-11T09:03:15.553Z,22.80
2018-09-11T09:05:43.127Z,22.80
2018-09-11T09:08:10.695Z,22.80
2018-09-11T09:10:38.265Z,22.80
2018-09-11T09:13:05.826Z,22.90
2018-09-11T09:15:33.434Z,23.00
2018-09-11T09:18:00.977Z,23.10
2018-09-11T09:20:28.550Z,23.20
2018-09-11T09:22:56.125Z,23.30
2018-09-11T09:25:23.698Z,23.40
2018-09-11T09:27:51.266Z,23.40
2018-09-11T09:30:18.829Z,23.40
2018-09-11T09:32:46.401Z,23.50
2018-09-11T09:35:13.958Z,23.60
2018-09-11T09:37:41.524Z,23.70
2018-09-11T09:40:09.141Z,23.70
2018-09-11T09:42:36.712Z,23.80
2018-09-11T09:45:04.274Z,23.80
2018-09-11T09:47:31.839Z,23.80
2018-09-11T09:50:01.389Z,23.80
2018-09-11T09:52:28.962Z,23.70
2018-09-11T09:54:56.538Z,23.80
2018-09-11T09:57:24.113Z,23.70
2018-09-11T09:59:51.674Z,23.80
2018-09-11T10:02:19.241Z,23.90
2018-09-11T10:04:46.822Z,24.00
2018-09-11T10:07:15.382Z,24.10
2018-09-11T10:09:42.979Z,24.10
2018-09-11T10:12:10.581Z,24.20
2018-09-11T10:14:38.149Z,24.10
2018-09-11T10:17:05.763Z,23.90
2018-09-11T10:19:34.097Z,24.10
2018-09-11T10:22:01.667Z,24.10
2018-09-11T10:24:29.237Z,24.20
2018-09-11T10:26:56.806Z,24.20
2018-09-11T10:29:24.437Z,24.10
2018-09-11T10:31:54.433Z,24.30
2018-09-11T10:34:22.022Z,24.40
2018-09-11T10:36:49.619Z,24.50
2018-09-11T10:39:17.237Z,24.60
2018-09-11T10:41:44.809Z,24.60
2018-09-11T10:44:12.373Z,24.80
2018-09-11T10:46:39.941Z,25.00
2018-09-11T10:49:07.538Z,25.00
2018-09-11T10:51:35.104Z,25.10
2018-09-11T10:54:02.687Z,25.20
2018-09-11T10:56:30.254Z,25.20
2018-09-11T10:58:57.821Z,25.30
2018-09-11T11:01:25.390Z,25.50
2018-09-11T11:03:53.721Z,25.70
2018-09-11T11:06:21.302Z,25.60
2018-09-11T11:08:48.857Z,25.80
2018-09-11T11:11:16.425Z,25.90
2018-09-11T11:13:44.774Z,26.20
2018-09-11T11:16:12.369Z,26.20
2018-09-11T11:18:39.949Z,26.40
2018-09-11T11:21:07.522Z,26.40
2018-09-11T11:23:35.093Z,26.30
2018-09-11T11:26:02.657Z,26.30
2018-09-11T11:28:30.217Z,26.40
2018-09-11T11:30:57.833Z,26.30
2018-09-11T11:33:25.409Z,26.40
2018-09-11T11:35:52.996Z,26.60
2018-09-11T11:38:20.578Z,26.90
2018-09-11T11:40:48.921Z,27.40
2018-09-11T11:43:16.494Z,27.40
2018-09-11T11:45:44.074Z,27.40
2018-09-11T11:48:13.880Z,27.20
2018-09-11T11:50:41.403Z,27.30
2018-09-11T11:53:08.966Z,27.50
2018-09-11T11:55:36.545Z,27.80
2018-09-11T11:58:04.109Z,28.10
2018-09-11T12:00:31.682Z,28.30
2018-09-11T12:02:59.255Z,28.50
2018-09-11T12:05:26.836Z,28.70
2018-09-11T12:07:54.437Z,28.80
2018-09-11T12:10:22.004Z,28.70
2018-09-11T12:12:49.588Z,28.90
2018-09-11T12:15:17.158Z,29.10
2018-09-11T12:17:44.751Z,29.20
2018-09-11T12:20:12.343Z,29.30
2018-09-11T12:22:39.905Z,29.50
2018-09-11T12:25:07.486Z,29.70
2018-09-11T12:27:35.052Z,29.70
2018-09-11T12:30:02.626Z,29.80
2018-09-11T12:32:30.193Z,30.00
2018-09-11T12:34:57.763Z,30.20
2018-09-11T12:37:26.319Z,30.20
2018-09-11T12:39:53.873Z,30.10
2018-09-11T12:42:21.434Z,30.20
2018-09-11T12:44:49.003Z,30.30
2018-09-11T12:47:16.792Z,30.40
2018-09-11T12:49:44.182Z,30.40
2018-09-11T12:52:11.748Z,30.50
2018-09-11T12:54:39.306Z,30.80
2018-09-11T12:57:08.785Z,31.00
2018-09-11T12:59:36.359Z,31.00
2018-09-11T13:02:04.959Z,31.10
2018-09-11T13:04:32.543Z,31.10
2018-09-11T13:07:00.880Z,31.40
2018-09-11T13:09:28.528Z,31.40
2018-09-11T13:11:57.972Z,31.30
2018-09-11T13:14:25.548Z,31.40
2018-09-11T13:16:53.113Z,31.40
2018-09-11T13:19:20.673Z,31.00
2018-09-11T13:21:49.158Z,30.70
2018-09-11T13:24:17.707Z,30.70
2018-09-11T13:26:48.013Z,31.50
2018-09-11T13:29:17.528Z,31.50
2018-09-11T13:31:47.022Z,31.60
2018-09-11T13:34:14.590Z,31.70
2018-09-11T13:36:42.169Z,31.90
2018-09-11T13:39:09.740Z,32.00
2018-09-11T13:41:37.305Z,32.30
2018-09-11T13:44:04.883Z,32.20
2018-09-11T13:46:32.464Z,32.20
2018-09-11T13:49:00.049Z,31.90
2018-09-11T13:51:28.391Z,32.20
2018-09-11T13:53:55.971Z,32.10
2018-09-11T13:56:23.546Z,32.00
2018-09-11T13:58:51.128Z,31.80
2018-09-11T14:01:18.709Z,31.90
2018-09-11T14:03:46.377Z,32.10
2018-09-11T14:06:13.952Z,32.30
2018-09-11T14:08:42.529Z,32.70
2018-09-11T14:11:10.109Z,32.60
2018-09-11T14:13:38.447Z,31.80
2018-09-11T14:16:06.041Z,31.80
2018-09-11T14:18:33.612Z,31.80
2018-09-11T14:21:01.177Z,31.50
2018-09-11T14:23:29.681Z,32.10
2018-09-11T14:25:57.257Z,32.70
2018-09-11T14:28:24.859Z,32.50
2018-09-11T14:30:52.435Z,33.00
2018-09-11T14:33:20.009Z,33.10
2018-09-11T14:35:47.586Z,33.50
2018-09-11T14:38:15.154Z,33.50
2018-09-11T14:40:42.729Z,33.30
2018-09-11T14:43:10.319Z,33.20
2018-09-11T14:45:38.809Z,33.50
2018-09-11T14:48:07.338Z,33.80
2018-09-11T14:50:34.918Z,33.80
2018-09-11T14:53:02.502Z,33.30
2018-09-11T14:55:30.079Z,33.50
2018-09-11T14:57:57.649Z,33.60
2018-09-11T15:00:26.778Z,33.80
2018-09-11T15:02:54.358Z,34.20
2018-09-11T15:05:23.896Z,34.40
2018-09-11T15:07:51.478Z,33.90
2018-09-11T15:10:19.065Z,33.50
2018-09-11T15:12:46.638Z,33.80
2018-09-11T15:15:14.277Z,34.30
2018-09-11T15:17:41.810Z,34.40
2018-09-11T15:20:09.396Z,34.50
2018-09-11T15:22:37.027Z,34.60
2018-09-11T15:25:04.588Z,34.50
2018-09-11T15:27:32.159Z,34.40
2018-09-11T15:29:59.773Z,34.10
2018-09-11T15:32:27.328Z,33.70
2018-09-11T15:34:54.903Z,33.40
2018-09-11T15:37:22.490Z,33.50
2018-09-11T15:39:52.765Z,33.50
2018-09-11T15:42:20.348Z,33.50
2018-09-11T15:44:49.866Z,33.40
2018-09-11T15:47:17.425Z,33.40
2018-09-11T15:49:45.002Z,33.30
2018-09-11T15:52:12.576Z,33.00
2018-09-11T15:54:40.158Z,32.90
2018-09-11T15:57:07.733Z,32.60
2018-09-11T15:59:35.301Z,32.30
2018-09-11T16:02:02.887Z,31.80
2018-09-11T16:04:30.458Z,31.10
2018-09-11T16:06:58.059Z,30.60
2018-09-11T16:09:25.618Z,30.20
2018-09-11T16:11:53.182Z,29.70
2018-09-11T16:14:20.737Z,29.50
2018-09-11T16:16:48.306Z,29.20
2018-09-11T16:19:15.873Z,28.90
2018-09-11T16:21:43.434Z,28.80
2018-09-11T16:24:11.763Z,28.50
2018-09-11T16:26:39.325Z,28.40
2018-09-11T16:29:08.822Z,28.20
2018-09-11T16:31:37.277Z,27.90
2018-09-11T16:34:04.846Z,27.70
2018-09-11T16:36:32.411Z,27.40
2018-09-11T16:38:59.969Z,27.10
2018-09-11T16:41:27.540Z,26.90
2018-09-11T16:43:55.109Z,26.70
2018-09-11T16:46:22.671Z,26.50
2018-09-11T16:48:50.223Z,26.40
2018-09-11T16:51:17.785Z,26.20
2018-09-11T16:53:45.351Z,26.00
2018-09-11T16:56:13.882Z,25.70
2018-09-11T16:58:41.441Z,25.50
2018-09-11T17:01:08.993Z,25.30
2018-09-11T17:03:36.557Z,25.20
2018-09-11T17:06:04.119Z,25.10
2018-09-11T17:08:31.685Z,25.00
2018-09-11T17:10:59.245Z,24.90
2018-09-11T17:13:27.008Z,24.70
2018-09-11T17:15:55.538Z,24.60
2018-09-11T17:18:23.105Z,24.50
2018-09-11T17:20:52.601Z,24.30
2018-09-11T17:23:20.278Z,24.10
2018-09-11T17:25:47.837Z,23.90
2018-09-11T17:28:15.393Z,23.70
2018-09-11T17:30:43.002Z,23.60
2018-09-11T17:33:11.536Z,23.40
2018-09-11T17:35:40.044Z,23.40
2018-09-11T17:38:07.623Z,23.30
2018-09-11T17:40:35.206Z,23.10
2018-09-11T17:43:04.718Z,23.00
2018-09-11T17:45:32.285Z,22.90
2018-09-11T17:48:00.769Z,22.80
2018-09-11T17:50:28.422Z,22.60
2018-09-11T17:52:55.982Z,22.50
2018-09-11T17:55:23.613Z,22.40
2018-09-11T17:57:51.155Z,22.40
2018-09-11T18:00:19.487Z,22.30
2018-09-11T18:02:47.116Z,22.20
2018-09-11T18:05:15.631Z,22.20
2018-09-11T18:07:43.181Z,22.10
2018-09-11T18:10:10.794Z,22.10
2018-09-11T18:12:38.380Z,22.10
2018-09-11T18:15:05.993Z,22.10
2018-09-11T18:17:34.343Z,22.00
2018-09-11T18:20:01.991Z,22.00
2018-09-11T18:22:29.565Z,21.90
2018-09-11T18:24:57.146Z,21.90
2018-09-11T18:27:25.570Z,21.80
2018-09-11T18:29:53.151Z,21.80
2018-09-11T18:32:20.731Z,21.80
2018-09-11T18:34:48.355Z,21.70
2018-09-11T18:37:17.176Z,21.70
2018-09-11T18:39:44.773Z,21.70
2018-09-11T18:42:12.350Z,21.60
2018-09-11T18:44:39.991Z,21.70
2018-09-11T18:47:07.568Z,21.70
2018-09-11T18:49:37.090Z,21.80
2018-09-11T18:52:04.685Z,21.70
2018-09-11T18:54:32.310Z,21.70
2018-09-11T18:56:59.906Z,21.60
2018-09-11T18:59:27.511Z,21.60
2018-09-11T19:01:55.107Z,21.50
2018-09-11T19:04:22.686Z,21.50
2018-09-11T19:06:50.286Z,21.50
2018-09-11T19:09:17.898Z,21.40
2018-09-11T19:11:45.482Z,21.40
2018-09-11T19:14:14.018Z,21.30
2018-09-11T19:16:41.692Z,21.30
2018-09-11T19:19:10.267Z,21.20
2018-09-11T19:21:38.610Z,20.90
2018-09-11T19:24:06.247Z,20.80
2018-09-11T19:26:33.844Z,20.70
2018-09-11T19:29:03.460Z,20.60
2018-09-11T19:31:31.854Z,20.40
2018-09-11T19:33:59.495Z,20.40
2018-09-11T19:36:27.088Z,20.30
2018-09-11T19:38:54.670Z,20.20
2018-09-11T19:41:22.258Z,20.00
2018-09-11T19:43:49.877Z,20.00
2018-09-11T19:46:17.498Z,19.90
2018-09-11T19:48:45.838Z,19.90
2018-09-11T19:51:14.170Z,19.80
2018-09-11T19:53:41.728Z,19.80
2018-09-11T19:56:09.286Z,19.80
2018-09-11T19:58:36.875Z,19.60
2018-09-11T20:01:04.448Z,19.50
2018-09-11T20:03:32.005Z,19.30
2018-09-11T20:05:59.566Z,19.30
2018-09-11T20:08:28.193Z,19.00
2018-09-11T20:10:55.757Z,19.00
2018-09-11T20:13:23.318Z,19.10
2018-09-11T20:15:50.881Z,19.00
2018-09-11T20:18:18.441Z,19.00
2018-09-11T20:20:46.001Z,18.90
2018-09-11T20:23:13.561Z,18.90
2018-09-11T20:25:43.062Z,18.80
2018-09-11T20:28:10.641Z,18.80
2018-09-11T20:30:38.218Z,18.70
2018-09-11T20:33:05.789Z,18.70
2018-09-11T20:35:33.363Z,18.60
2018-09-11T20:38:00.922Z,18.60
2018-09-11T20:40:28.493Z,18.60
2018-09-11T20:42:56.045Z,18.50
2018-09-11T20:45:23.616Z,18.40
2018-09-11T20:47:51.174Z,18.30
2018-09-11T20:50:18.739Z,18.30
2018-09-11T20:52:46.302Z,18.30
2018-09-11T20:55:13.870Z,18.20
2018-09-11T20:57:41.431Z,18.20
2018-09-11T21:00:10.947Z,18.10
2018-09-11T21:02:38.519Z,18.10
2018-09-11T21:05:08.057Z,18.00
2018-09-11T21:07:35.613Z,17.90
2018-09-11T21:10:03.181Z,17.90
2018-09-11T21:12:30.750Z,17.80
2018-09-11T21:14:58.307Z,17.70
2018-09-11T21:17:25.865Z,17.70
2018-09-11T21:19:54.469Z,17.60
2018-09-11T21:22:22.029Z,17.60
2018-09-11T21:24:49.593Z,17.50
2018-09-11T21:27:17.944Z,17.40
2018-09-11T21:29:45.506Z,17.40
2018-09-11T21:32:13.070Z,17.40
2018-09-11T21:34:40.632Z,17.30
2018-09-11T21:37:08.196Z,17.30
2018-09-11T21:39:35.767Z,17.30
2018-09-11T21:42:04.090Z,17.20
2018-09-11T21:44:31.657Z,17.20
2018-09-11T21:46:59.217Z,17.20
2018-09-11T21:49:28.718Z,17.30
2018-09-11T21:51:56.333Z,17.40
2018-09-11T21:54:23.861Z,17.40
2018-09-11T21:56:51.418Z,17.30
2018-09-11T21:59:18.976Z,17.30
2018-09-11T22:01:46.542Z,17.20
2018-09-11T22:04:16.841Z,17.20
2018-09-11T22:06:44.409Z,17.20
2018-09-11T22:09:11.965Z,17.10
2018-09-11T22:11:39.530Z,17.00
2018-09-11T22:14:07.094Z,17.00
2018-09-11T22:16:34.664Z,16.80
2018-09-11T22:19:03.015Z,16.70
2018-09-11T22:21:31.349Z,16.70
2018-09-11T22:23:58.915Z,16.70
2018-09-11T22:26:26.485Z,16.60
2018-09-11T22:28:55.995Z,16.50
2018-09-11T22:31:23.569Z,16.50
2018-09-11T22:33:51.137Z,16.40
2018-09-11T22:36:19.473Z,16.30
2018-09-11T22:38:48.993Z,16.20
2018-09-11T22:41:16.558Z,16.20
2018-09-11T22:43:44.113Z,16.10
2018-09-11T22:46:11.684Z,16.10
2018-09-11T22:48:39.237Z,16.10
2018-09-11T22:51:07.573Z,16.00
2018-09-11T22:53:35.125Z,16.00
2018-09-11T22:56:03.674Z,16.00
2018-09-11T22:58:31.235Z,15.90
2018-09-11T23:00:58.795Z,15.90
2018-09-11T23:03:26.350Z,15.90
2018-09-11T23:05:53.916Z,15.90
2018-09-11T23:08:21.586Z,15.90
2018-09-11T23:10:49.149Z,15.90
2018-09-11T23:13:16.709Z,15.90
2018-09-11T23:15:44.275Z,15.90
2018-09-11T23:18:11.845Z,15.80
2018-09-11T23:20:40.418Z,15.80
2018-09-11T23:23:07.983Z,15.70
2018-09-11T23:25:35.540Z,15.70
2018-09-11T23:28:03.103Z,15.70
2018-09-11T23:30:30.670Z,15.60
2018-09-11T23:32:58.233Z,15.50
2018-09-11T23:35:25.798Z,15.50
2018-09-11T23:37:54.121Z,15.40
2018-09-11T23:40:22.681Z,15.40
2018-09-11T23:42:50.237Z,15.40
2018-09-11T23:45:17.798Z,15.40
2018-09-11T23:47:45.362Z,15.30
2018-09-11T23:50:12.922Z,15.30
2018-09-11T23:52:40.495Z,15.30
2018-09-11T23:55:08.617Z,15.30
2018-09-11T23:57:36.188Z,15.30
